Time;durP1;ratioP1;P1;durP2;ratioP2;P2;SDS_P1;SDS_P2;PMS_P1;PMS_P2;Temp;Humidity;BMP_temperature;BMP_pressure;BME280_temperature;BME280_humidity;BME280_pressure;Samples;Min_cycle;Max_cycle;Signal;HPM_P1;HPM_P2
2023/09/10 00:00:45;;;;;;;8.85;6.78;;;22.10;66.00;;;23.82;49.39;97796.25;5018004;28;20466;-66
2023/09/10 00:03:13;;;;;;;8.30;6.65;;;22.10;65.80;;;23.77;49.33;97796.97;5019544;28;20046;-66
2023/09/10 00:05:41;;;;;;;7.82;6.65;;;22.10;65.60;;;23.74;49.23;97794.72;5021626;28;20488;-66
2023/09/10 00:08:09;;;;;;;9.27;6.70;;;22.00;65.40;;;23.72;48.94;97796.84;5020034;28;20041;-67
2023/09/10 00:10:37;;;;;;;8.15;7.00;;;21.90;65.00;;;23.70;48.96;97800.88;5016482;28;20038;-66
2023/09/10 00:13:05;;;;;;;9.70;7.18;;;21.90;64.90;;;23.67;49.26;97794.06;5018173;28;20053;-66
2023/09/10 00:15:33;;;;;;;9.05;6.63;;;21.90;65.50;;;23.65;49.37;97798.06;5020184;28;20042;-66
2023/09/10 00:18:00;;;;;;;8.30;7.38;;;21.90;65.80;;;23.62;49.35;97799.38;5020257;28;20419;-66
2023/09/10 00:20:28;;;;;;;8.13;6.10;;;21.80;65.60;;;23.62;49.09;97801.28;5020163;28;20037;-67
2023/09/10 00:22:56;;;;;;;8.85;7.35;;;21.80;65.40;;;23.62;49.19;97798.56;5020889;28;20053;-66
2023/09/10 00:25:24;;;;;;;10.05;6.88;;;21.80;65.30;;;23.59;49.14;97797.97;5014319;28;20508;-66
2023/09/10 00:27:52;;;;;;;10.07;6.55;;;21.80;65.30;;;23.55;49.22;97802.25;5016594;28;20050;-67
2023/09/10 00:30:20;;;;;;;6.85;6.07;;;21.80;65.50;;;23.52;49.35;97800.00;5019232;28;20065;-67
2023/09/10 00:32:48;;;;;;;10.18;7.13;;;21.70;65.80;;;23.52;49.35;97797.28;5020456;28;20076;-66
2023/09/10 00:35:15;;;;;;;7.43;6.70;;;21.70;65.70;;;23.51;49.34;97798.34;5017482;28;20069;-66
2023/09/10 00:37:43;;;;;;;7.55;6.53;;;21.70;65.70;;;23.48;49.16;97800.72;5005912;28;20049;-67
2023/09/10 00:40:12;;;;;;;8.88;7.13;;;21.70;65.80;;;23.46;49.66;97802.84;5021080;28;20052;-66
2023/09/10 00:42:40;;;;;;;7.55;6.25;;;21.70;66.10;;;23.45;49.64;97793.03;5021202;27;20519;-66
2023/09/10 00:45:12;;;;;;;7.88;6.88;;;21.70;66.00;;;23.43;49.41;97792.47;5020137;28;20041;-66
2023/09/10 00:47:45;;;;;;;8.63;6.75;;;21.70;66.00;;;23.41;49.46;97787.25;5016463;28;20493;-66
2023/09/10 00:50:14;;;;;;;7.15;6.45;;;21.70;65.60;;;23.41;49.24;97789.97;5017254;28;20536;-66
2023/09/10 00:52:50;;;;;;;9.57;6.82;;;21.70;65.30;;;23.42;49.29;97788.09;5028859;28;20064;-67
2023/09/10 00:55:20;;;;;;;8.18;6.88;;;21.70;65.00;;;23.42;49.04;97786.22;5016782;28;20056;-66
2023/09/10 00:57:49;;;;;;;10.50;6.65;;;21.70;65.00;;;23.44;49.34;97788.66;5016217;28;20053;-66
2023/09/10 01:00:19;;;;;;;8.20;6.85;;;21.70;65.30;;;23.44;49.34;97780.50;5016970;28;20417;-66
2023/09/10 01:02:49;;;;;;;9.55;6.10;;;21.70;65.20;;;23.43;49.55;97787.03;5018252;28;20049;-66
2023/09/10 01:05:18;;;;;;;10.25;7.95;;;21.70;65.30;;;23.42;49.21;97790.81;5019588;28;20045;-66
2023/09/10 01:07:46;;;;;;;8.57;6.82;;;21.70;65.40;;;23.39;49.24;97787.50;5023330;28;20060;-66
2023/09/10 01:10:13;;;;;;;8.70;7.00;;;21.70;65.60;;;23.39;49.69;97787.50;5019193;28;20421;-67
2023/09/10 01:13:09;;;;;;;7.65;6.95;;;21.70;65.80;;;23.38;49.78;97793.19;5018695;28;20052;-66
2023/09/10 01:15:48;;;;;;;7.10;6.40;;;21.70;66.20;;;23.39;49.82;97792.13;5016171;28;20046;-67
2023/09/10 01:18:22;;;;;;;8.27;7.47;;;21.70;65.80;;;23.42;49.63;97793.50;5001120;28;20046;-66
2023/09/10 01:21:41;;;;;;;8.48;6.55;;;21.70;65.60;;;23.41;49.86;97795.41;5028405;27;20057;-66
2023/09/10 01:24:58;;;;;;;9.25;6.85;;;21.80;65.40;;;23.41;49.51;97786.44;5015643;28;20046;-66
2023/09/10 01:27:26;;;;;;;9.48;7.72;;;21.80;65.60;;;23.44;49.49;97789.50;5017807;28;20432;-66
2023/09/10 01:29:54;;;;;;;9.77;7.53;;;21.70;65.60;;;23.42;49.74;97779.94;5023704;28;20045;-66
2023/09/10 01:32:31;;;;;;;9.07;7.38;;;21.70;65.60;;;23.43;49.46;97779.69;5112715;27;20064;-67
2023/09/10 01:35:03;;;;;;;8.13;6.63;;;21.80;65.50;;;23.45;49.49;97782.19;5021289;28;20049;-66
2023/09/10 01:37:58;;;;;;;8.68;6.75;;;21.80;65.50;;;23.44;49.38;97784.09;5015654;28;20042;-66
2023/09/10 01:40:37;;;;;;;9.18;6.90;;;21.80;65.10;;;23.46;49.22;97779.22;5018913;28;20045;-66
2023/09/10 01:43:06;;;;;;;8.25;6.18;;;21.80;64.80;;;23.45;49.14;97780.28;5018537;28;20049;-66
2023/09/10 01:45:35;;;;;;;8.40;6.55;;;21.70;64.70;;;23.44;49.03;97777.81;5017059;28;20061;-67
2023/09/10 01:48:03;;;;;;;9.48;6.93;;;21.80;64.60;;;23.41;49.11;97778.31;5015531;28;20116;-66
2023/09/10 01:50:31;;;;;;;10.60;6.55;;;21.70;64.30;;;23.39;49.10;97787.50;5017954;28;20072;-66
2023/09/10 01:52:59;;;;;;;8.30;7.32;;;21.70;64.40;;;23.36;48.96;97785.28;5018309;28;20453;-66
2023/09/10 01:55:26;;;;;;;8.13;6.30;;;21.70;64.30;;;23.34;49.06;97790.13;5024372;28;20519;-66
2023/09/10 01:57:55;;;;;;;7.97;6.20;;;21.70;64.20;;;23.33;49.04;97783.03;5022796;28;20046;-66
2023/09/10 02:00:23;;;;;;;11.23;7.28;;;21.70;64.60;;;23.31;49.14;97796.03;5018447;28;20042;-66
2023/09/10 02:02:50;;;;;;;7.10;6.35;;;21.60;64.70;;;23.30;48.97;97791.69;5034059;28;20045;-66
2023/09/10 02:05:18;;;;;;;7.90;6.15;;;21.60;64.60;;;23.27;49.07;97785.91;5017114;28;20060;-66
2023/09/10 02:07:46;;;;;;;10.18;7.20;;;21.60;64.40;;;23.26;49.07;97784.22;5015088;28;20045;-66
2023/09/10 02:10:14;;;;;;;10.05;7.57;;;21.50;65.00;;;23.23;49.23;97784.72;5031970;28;20532;-66
2023/09/10 02:12:42;;;;;;;8.70;7.10;;;21.50;65.10;;;23.22;49.16;97780.34;5027118;28;20060;-66
2023/09/10 02:15:11;;;;;;;8.32;7.43;;;21.50;65.20;;;23.20;49.21;97777.88;5034636;28;20053;-66
2023/09/10 02:17:38;;;;;;;9.18;6.90;;;21.50;65.40;;;23.17;49.42;97779.19;5019828;28;20041;-67
2023/09/10 02:20:09;;;;;;;10.35;7.55;;;21.50;65.70;;;23.14;49.55;97778.81;5027980;28;20045;-66
2023/09/10 02:22:41;;;;;;;9.10;7.43;;;21.40;65.70;;;23.11;49.32;97774.72;5014690;28;20042;-66
2023/09/10 02:25:09;;;;;;;8.43;6.43;;;21.40;65.70;;;23.07;49.52;97778.97;5015277;28;20046;-66
2023/09/10 02:27:37;;;;;;;6.93;6.22;;;21.30;65.80;;;23.03;49.55;97782.38;5018068;28;20046;-66
2023/09/10 02:30:07;;;;;;;8.73;7.63;;;21.20;66.20;;;23.00;49.91;97781.75;5027085;28;20054;-66
2023/09/10 02:32:37;;;;;;;10.13;7.32;;;21.20;66.40;;;22.96;49.70;97783.31;5014603;28;20046;-66
2023/09/10 02:35:06;;;;;;;7.65;6.60;;;21.20;66.10;;;22.94;50.04;97782.72;5010627;28;20053;-67
2023/09/10 02:37:33;;;;;;;10.05;7.50;;;21.20;67.30;;;22.91;50.04;97779.66;5022892;28;20051;-66
2023/09/10 02:40:01;;;;;;;8.88;7.97;;;21.20;66.70;;;22.89;50.08;97785.31;5038028;28;20041;-66
2023/09/10 02:42:29;;;;;;;8.55;7.63;;;21.10;66.80;;;22.86;49.76;97780.38;5056540;28;20057;-66
2023/09/10 02:44:58;;;;;;;8.50;6.80;;;21.10;66.80;;;22.83;50.37;97780.00;5022608;28;20051;-66
2023/09/10 02:47:27;;;;;;;7.72;6.57;;;21.00;67.20;;;22.79;50.38;97771.50;5027895;28;20414;-66
2023/09/10 02:49:55;;;;;;;7.30;6.57;;;21.00;67.50;;;22.76;50.44;97782.81;5009025;28;20045;-66
2023/09/10 02:52:26;;;;;;;8.27;6.70;;;21.00;67.80;;;22.73;50.62;97786.84;5004524;28;20057;-66
2023/09/10 02:54:54;;;;;;;9.15;7.15;;;20.90;67.80;;;22.73;50.49;97781.44;5008992;28;20501;-66
2023/09/10 02:57:21;;;;;;;12.60;7.53;;;21.00;67.50;;;22.69;50.67;97777.53;5022505;28;20049;-66
2023/09/10 02:59:49;;;;;;;7.82;6.68;;;21.00;67.70;;;22.66;50.57;97775.28;5030800;28;20049;-66
2023/09/10 03:02:17;;;;;;;8.15;7.13;;;20.90;68.00;;;22.64;50.48;97776.59;5029241;28;20058;-66
2023/09/10 03:04:44;;;;;;;9.00;7.25;;;20.80;68.10;;;22.60;50.59;97776.22;5018739;28;20049;-66
2023/09/10 03:07:12;;;;;;;12.23;7.05;;;20.80;68.10;;;22.58;50.63;97771.03;5010100;28;20050;-66
2023/09/10 03:09:40;;;;;;;7.88;6.90;;;20.80;68.00;;;22.56;50.75;97784.00;5005074;28;20049;-66
2023/09/10 03:12:28;;;;;;;9.10;7.00;;;20.80;68.20;;;22.52;50.83;97780.13;5020568;28;20058;-66
2023/09/10 03:14:58;;;;;;;7.28;6.57;;;20.80;68.70;;;22.51;50.99;97780.38;5022858;28;20045;-66
2023/09/10 03:17:28;;;;;;;7.93;7.15;;;20.80;68.20;;;22.47;50.99;97782.72;5029398;27;20053;-66
2023/09/10 03:19:56;;;;;;;9.35;6.88;;;20.70;68.50;;;22.43;51.13;97789.69;5017550;28;20509;-66
2023/09/10 03:22:24;;;;;;;7.53;6.75;;;20.60;68.50;;;22.40;50.89;97790.97;5017278;28;20493;-66
2023/09/10 03:24:52;;;;;;;8.43;6.20;;;20.60;68.60;;;22.36;50.91;97784.34;5012682;28;20038;-66
2023/09/10 03:27:20;;;;;;;7.47;6.55;;;20.60;68.90;;;22.34;51.41;97791.06;5002074;28;20408;-66
2023/09/10 03:29:48;;;;;;;10.18;7.35;;;20.60;68.90;;;22.31;51.05;97781.50;5018847;28;20057;-66
2023/09/10 03:32:15;;;;;;;9.02;7.43;;;20.60;69.10;;;22.29;51.47;97786.34;5024724;28;20524;-66
2023/09/10 03:34:48;;;;;;;9.50;8.50;;;20.50;69.40;;;22.27;51.46;97785.75;5018516;28;20042;-66
2023/09/10 03:37:16;;;;;;;10.73;7.90;;;20.50;69.60;;;22.25;51.46;97787.03;5026585;28;20050;-66
2023/09/10 03:39:43;;;;;;;9.63;8.63;;;20.50;69.70;;;22.21;51.45;97784.75;5017498;28;20050;-66
2023/09/10 03:42:11;;;;;;;10.35;9.18;;;20.40;71.00;;;22.16;51.97;97790.06;5027424;28;20045;-67
2023/09/10 03:44:39;;;;;;;12.23;9.65;;;20.30;70.80;;;22.14;51.78;97786.75;5019436;28;20505;-66
2023/09/10 03:47:07;;;;;;;10.63;8.60;;;20.30;71.20;;;22.11;52.24;97787.22;5019504;28;20049;-66
2023/09/10 03:49:36;;;;;;;10.75;9.23;;;20.30;71.30;;;22.09;52.42;97785.81;5018393;28;20060;-65
2023/09/10 03:52:19;;;;;;;11.20;9.43;;;20.30;71.60;;;22.02;52.34;97778.59;5035601;27;20057;-66
2023/09/10 03:54:47;;;;;;;11.68;8.68;;;20.20;72.10;;;22.01;52.31;97785.06;5028429;28;20076;-65
2023/09/10 03:57:15;;;;;;;10.20;8.57;;;20.20;71.60;;;21.99;52.49;97783.66;5022237;28;20049;-65
2023/09/10 03:59:43;;;;;;;9.68;8.68;;;20.20;71.80;;;21.96;52.16;97779.50;5037063;28;20049;-65
2023/09/10 04:02:11;;;;;;;9.45;7.50;;;20.20;71.20;;;21.93;52.18;97779.97;5028589;28;20053;-66
2023/09/10 04:04:41;;;;;;;10.75;7.15;;;20.20;71.20;;;21.92;52.34;97781.03;5008804;28;20080;-66
2023/09/10 04:07:09;;;;;;;8.57;7.68;;;20.20;71.00;;;21.91;52.45;97789.41;5026049;28;20515;-65
2023/09/10 04:09:37;;;;;;;8.15;7.28;;;20.10;71.10;;;21.87;52.23;97780.06;5021799;28;20053;-64
2023/09/10 04:12:05;;;;;;;8.90;7.55;;;20.00;71.30;;;21.82;52.34;97778.88;5035867;28;20060;-65
2023/09/10 04:14:33;;;;;;;7.93;7.10;;;20.00;71.30;;;21.80;52.13;97780.16;5026528;28;20054;-65
2023/09/10 04:17:01;;;;;;;10.68;7.60;;;20.00;71.30;;;21.79;52.38;97787.47;5031077;27;20523;-66
2023/09/10 04:19:29;;;;;;;9.02;7.47;;;20.00;71.10;;;21.76;52.09;97793.34;5019580;28;20041;-66
2023/09/10 04:21:57;;;;;;;8.88;7.35;;;19.90;72.10;;;21.75;52.10;97794.41;5027173;27;20045;-66
2023/09/10 04:24:25;;;;;;;10.32;7.68;;;19.90;71.30;;;21.73;52.47;97795.69;5027876;28;20050;-66
2023/09/10 04:26:52;;;;;;;8.48;7.53;;;19.90;72.10;;;21.70;52.19;97794.25;5015775;28;20092;-66
2023/09/10 04:29:21;;;;;;;9.45;7.25;;;19.90;71.20;;;21.69;51.88;97802.63;5024632;28;20639;-66
2023/09/10 04:31:49;;;;;;;8.85;6.75;;;19.90;70.80;;;21.68;52.33;97795.56;5026329;28;20128;-66
2023/09/10 04:34:17;;;;;;;10.68;7.75;;;19.90;70.60;;;21.68;51.88;97803.69;5033048;28;20046;-66
2023/09/10 04:36:46;;;;;;;9.40;8.10;;;19.90;70.70;;;21.64;52.32;97803.31;5020090;28;20050;-66
2023/09/10 04:39:17;;;;;;;7.45;6.65;;;19.90;71.00;;;21.62;52.35;97798.13;5003272;28;20052;-66
2023/09/10 04:41:45;;;;;;;7.55;6.72;;;19.80;71.00;;;21.61;52.35;97801.06;5025255;28;20435;-66
2023/09/10 04:44:14;;;;;;;8.95;6.32;;;19.80;71.00;;;21.57;52.15;97807.97;5025964;28;20045;-66
2023/09/10 04:46:41;;;;;;;7.75;6.97;;;19.80;71.00;;;21.54;52.04;97801.16;5021050;28;20042;-66
2023/09/10 04:49:09;;;;;;;8.18;7.38;;;19.70;71.10;;;21.52;52.05;97807.81;5003430;28;20103;-66
2023/09/10 04:51:37;;;;;;;10.15;7.13;;;19.60;71.30;;;21.48;52.72;97804.78;5026342;28;20539;-66
2023/09/10 04:54:04;;;;;;;12.13;7.85;;;19.70;71.50;;;21.45;52.36;97805.22;5004212;28;20064;-66
2023/09/10 04:56:32;;;;;;;9.68;7.95;;;19.60;71.50;;;21.41;52.70;97806.69;5026695;28;20061;-66
2023/09/10 04:59:00;;;;;;;10.27;7.82;;;19.60;71.90;;;21.38;52.62;97807.13;5021836;28;20041;-66
2023/09/10 05:01:28;;;;;;;9.27;6.90;;;19.60;72.20;;;21.35;53.09;97811.13;5020612;28;20057;-66
2023/09/10 05:03:56;;;;;;;9.38;7.50;;;19.50;72.40;;;21.33;52.57;97810.53;5028918;28;20045;-66
2023/09/10 05:06:23;;;;;;;7.68;6.80;;;19.50;72.30;;;21.33;52.80;97810.53;5035276;28;20045;-66
2023/09/10 05:08:51;;;;;;;8.85;6.80;;;19.60;72.10;;;21.32;52.98;97816.16;4999538;28;20519;-66
2023/09/10 05:11:19;;;;;;;10.27;7.88;;;19.50;73.30;;;21.29;52.82;97812.03;5043163;27;20046;-66
2023/09/10 05:13:46;;;;;;;9.23;7.47;;;19.50;72.80;;;21.28;53.37;97815.78;5026840;28;20053;-66
2023/09/10 05:16:14;;;;;;;12.25;6.75;;;19.50;72.90;;;21.27;52.93;97814.16;5020806;28;20050;-66
2023/09/10 05:18:42;;;;;;;10.15;7.95;;;19.50;73.10;;;21.26;53.20;97819.78;5034339;28;20049;-67
2023/09/10 05:21:10;;;;;;;9.20;7.63;;;19.40;73.10;;;21.23;53.08;97813.78;5020566;28;20443;-67
2023/09/10 05:23:38;;;;;;;9.63;8.73;;;19.40;73.20;;;21.23;53.28;97823.78;5018881;28;20041;-66
2023/09/10 05:26:06;;;;;;;9.27;7.40;;;19.40;73.20;;;21.23;53.60;97821.06;5023532;28;20049;-65
2023/09/10 05:28:34;;;;;;;10.52;7.85;;;19.40;73.20;;;21.26;53.76;97820.59;5020508;28;20424;-65
2023/09/10 05:31:07;;;;;;;14.43;7.88;;;19.60;73.00;;;21.27;53.32;97819.56;5023682;28;20045;-66
2023/09/10 05:33:36;;;;;;;8.70;7.80;;;19.50;73.10;;;21.27;53.71;97824.13;5025758;28;20475;-65
2023/09/10 05:36:04;;;;;;;8.43;7.15;;;19.60;73.00;;;21.29;53.58;97825.56;5027087;28;20052;-65
2023/09/10 05:38:32;;;;;;;9.63;7.32;;;19.50;73.10;;;21.31;53.39;97819.94;5034633;28;20426;-65
2023/09/10 05:41:03;;;;;;;10.23;8.07;;;19.60;72.90;;;21.34;53.78;97817.59;5015534;28;20054;-65
2023/09/10 05:43:31;;;;;;;8.57;7.72;;;19.60;72.80;;;21.36;53.63;97823.59;5015511;28;20045;-65
2023/09/10 05:46:00;;;;;;;8.77;7.63;;;19.70;73.00;;;21.38;53.72;97821.53;5020317;28;20061;-65
2023/09/10 05:48:28;;;;;;;10.75;7.50;;;19.70;73.00;;;21.41;53.89;97825.66;5028330;28;20067;-65
2023/09/10 05:50:57;;;;;;;9.25;8.07;;;19.80;73.10;;;21.42;53.60;97817.31;5017171;28;20042;-65
2023/09/10 05:53:27;;;;;;;9.65;8.00;;;19.80;73.10;;;21.47;53.84;97821.25;5021973;28;20049;-64
2023/09/10 05:55:55;;;;;;;9.77;7.85;;;19.80;73.00;;;21.50;53.86;97824.31;5018003;28;20045;-64
2023/09/10 05:58:24;;;;;;;9.77;7.57;;;19.90;73.10;;;21.53;53.94;97831.97;5020094;28;20042;-64
2023/09/10 06:00:52;;;;;;;11.15;8.15;;;19.90;73.10;;;21.56;53.92;97834.25;5016528;28;20056;-64
2023/09/10 06:03:20;;;;;;;8.82;7.93;;;20.00;72.80;;;21.62;53.83;97837.94;5001764;28;20060;-64
2023/09/10 06:05:49;;;;;;;13.10;9.48;;;20.00;72.80;;;21.65;53.91;97845.59;5037292;28;20042;-64
2023/09/10 06:08:17;;;;;;;12.70;9.32;;;20.10;72.70;;;21.68;54.07;97841.63;5001459;28;20056;-63
2023/09/10 06:10:45;;;;;;;11.88;9.70;;;20.10;72.60;;;21.70;54.01;97845.75;5016371;28;20049;-64
2023/09/10 06:13:13;;;;;;;10.73;8.60;;;20.20;72.80;;;21.72;54.18;97845.53;4996152;28;20445;-64
2023/09/10 06:15:42;;;;;;;14.07;10.45;;;20.20;72.90;;;21.73;54.14;97839.88;5015061;28;20045;-64
2023/09/10 06:18:09;;;;;;;10.43;9.32;;;20.20;73.10;;;21.75;53.92;97843.19;5014087;28;20042;-64
2023/09/10 06:20:37;;;;;;;13.13;10.10;;;20.20;73.20;;;21.77;54.13;97838.38;5046773;28;20049;-65
2023/09/10 06:23:05;;;;;;;12.43;10.57;;;20.20;73.50;;;21.80;54.44;97842.50;5022424;28;20041;-65
2023/09/10 06:25:33;;;;;;;13.40;10.30;;;20.30;74.00;;;21.84;54.80;97843.69;5010060;28;20496;-65
2023/09/10 06:28:02;;;;;;;11.95;10.60;;;20.30;74.20;;;21.88;54.72;97841.34;5020857;28;20060;-65
2023/09/10 06:30:30;;;;;;;14.00;10.77;;;20.40;74.30;;;21.93;55.34;97839.59;5021089;28;20054;-65
2023/09/10 06:32:57;;;;;;;14.95;12.13;;;20.40;75.00;;;21.97;55.56;97848.13;5111324;28;20428;-65
2023/09/10 06:35:26;;;;;;;12.82;10.95;;;20.50;75.60;;;22.01;55.51;97847.41;5033159;28;20054;-65
2023/09/10 06:37:54;;;;;;;14.60;11.45;;;20.60;75.50;;;22.06;55.26;97843.19;5014759;28;20046;-65
2023/09/10 06:40:22;;;;;;;14.35;10.43;;;20.60;75.80;;;22.11;55.67;97854.16;5022557;28;20425;-65
2023/09/10 06:42:50;;;;;;;13.43;12.02;;;20.60;76.30;;;22.13;55.62;97855.59;5016861;28;20042;-65
2023/09/10 06:45:33;;;;;;;16.70;11.98;;;20.70;76.30;;;22.16;55.68;97854.31;5033297;28;20057;-65
2023/09/10 06:48:00;;;;;;;16.63;12.35;;;20.70;76.50;;;22.19;55.83;97865.50;5015451;28;20045;-64
2023/09/10 06:50:28;;;;;;;13.38;12.00;;;20.80;76.50;;;22.22;55.85;97856.91;5014946;28;20057;-65
2023/09/10 06:52:56;;;;;;;14.18;12.50;;;20.80;76.40;;;22.26;55.86;97860.03;5016502;28;20057;-65
2023/09/10 06:55:23;;;;;;;12.77;11.18;;;20.80;76.10;;;22.29;55.83;97856.84;5033554;28;20072;-65
2023/09/10 06:57:52;;;;;;;13.30;11.90;;;20.90;77.20;;;22.34;55.86;97862.41;5016418;28;20076;-65
2023/09/10 07:00:20;;;;;;;14.75;12.32;;;21.00;76.10;;;22.38;55.92;97862.78;5014986;28;20519;-64
2023/09/10 07:02:47;;;;;;;14.80;11.90;;;20.90;75.80;;;22.43;55.97;97860.19;5015594;28;20490;-64
2023/09/10 07:05:15;;;;;;;14.70;11.48;;;21.00;75.50;;;22.47;55.37;97860.53;5018014;28;20037;-64
2023/09/10 07:07:43;;;;;;;14.55;12.07;;;21.10;75.20;;;22.51;55.55;97862.56;5017599;28;20547;-64
2023/09/10 07:10:10;;;;;;;16.17;11.10;;;21.20;74.80;;;22.56;55.38;97865.41;5014415;28;20042;-64
2023/09/10 07:12:38;;;;;;;15.18;10.95;;;21.20;74.40;;;22.61;55.11;97870.13;5014516;28;20037;-65
2023/09/10 07:15:06;;;;;;;15.10;10.82;;;21.30;74.20;;;22.65;54.98;97859.66;5018733;28;20493;-64
2023/09/10 07:17:34;;;;;;;13.95;11.50;;;21.30;73.50;;;22.71;54.89;97872.28;5019167;28;20497;-65
2023/09/10 07:20:02;;;;;;;11.70;10.50;;;21.40;73.00;;;22.75;54.45;97871.56;5017041;28;20060;-65
2023/09/10 07:22:30;;;;;;;12.10;10.80;;;21.50;72.50;;;22.80;54.82;97871.69;5035428;28;20041;-64
2023/09/10 07:24:57;;;;;;;13.48;10.90;;;21.50;72.30;;;22.86;55.18;97869.13;5018955;28;20407;-65
2023/09/10 07:27:25;;;;;;;13.55;10.90;;;21.60;73.00;;;22.93;55.42;97876.06;5019164;28;20042;-64
2023/09/10 07:29:52;;;;;;;13.07;11.15;;;21.70;73.60;;;22.97;55.58;97868.28;5020310;28;20477;-64
2023/09/10 07:32:20;;;;;;;16.98;11.75;;;21.80;74.10;;;23.02;55.53;97870.31;5022203;28;20057;-64
2023/09/10 07:34:48;;;;;;;12.80;11.50;;;21.80;74.10;;;23.08;55.44;97877.53;5020654;28;20048;-63
2023/09/10 07:37:15;;;;;;;15.05;12.18;;;21.80;74.10;;;23.12;55.91;97882.25;5017670;28;20053;-63
2023/09/10 07:39:43;;;;;;;12.70;11.23;;;21.90;74.60;;;23.15;55.73;97884.50;5033991;28;20046;-63
2023/09/10 07:42:11;;;;;;;15.55;12.40;;;21.90;74.50;;;23.19;55.73;97880.25;5022071;28;20033;-62
2023/09/10 07:44:40;;;;;;;15.13;12.15;;;22.00;74.30;;;23.23;55.75;97875.16;5021824;28;20152;-65
2023/09/10 07:47:11;;;;;;;15.45;12.48;;;22.00;74.40;;;23.28;55.86;97886.13;5028400;28;20554;-63
2023/09/10 07:49:39;;;;;;;14.18;12.80;;;22.10;74.40;;;23.32;56.09;97881.03;5020867;28;20418;-63
2023/09/10 07:52:06;;;;;;;23.45;12.10;;;22.10;74.60;;;23.36;55.68;97883.06;5018701;28;20046;-63
2023/09/10 07:54:36;;;;;;;12.75;11.20;;;22.20;74.30;;;23.41;55.93;97882.34;5016998;28;20049;-63
2023/09/10 07:57:04;;;;;;;14.20;12.35;;;22.20;74.20;;;23.47;55.98;97888.72;5020825;28;20046;-62
2023/09/10 07:59:31;;;;;;;14.13;11.57;;;22.30;74.60;;;23.50;56.34;97889.06;5021732;28;20361;-61
2023/09/10 08:02:01;;;;;;;15.35;10.95;;;22.30;75.70;;;23.53;56.67;97890.47;5019708;28;20041;-61
2023/09/10 08:04:29;;;;;;;11.77;10.30;;;22.40;76.00;;;23.54;56.68;97892.97;5018057;28;20038;-61
2023/09/10 08:07:00;;;;;;;11.38;9.95;;;22.40;76.30;;;23.58;56.83;97891.41;5019434;28;20053;-61
2023/09/10 08:09:30;;;;;;;12.70;11.43;;;22.50;77.20;;;23.58;56.82;97887.88;5021287;28;20038;-61
2023/09/10 08:11:57;;;;;;;12.07;9.00;;;22.50;76.70;;;23.62;56.76;97889.03;5020025;28;20064;-61
2023/09/10 08:14:25;;;;;;;11.52;9.55;;;22.50;76.20;;;23.66;56.71;97890.22;5014292;28;20049;-61
2023/09/10 08:16:53;;;;;;;11.75;9.23;;;22.50;75.80;;;23.72;56.51;97899.31;5017676;28;20046;-61
2023/09/10 08:19:21;;;;;;;15.40;10.77;;;22.60;75.40;;;23.73;56.11;97890.91;5018205;28;20045;-62
2023/09/10 08:21:49;;;;;;;11.52;9.98;;;22.60;75.00;;;23.77;55.99;97896.72;5016161;28;20117;-62
2023/09/10 08:24:16;;;;;;;14.65;9.80;;;22.70;74.00;;;23.80;56.04;97892.72;5016642;28;20432;-59
2023/09/10 08:26:44;;;;;;;10.68;9.32;;;22.70;73.90;;;23.83;55.41;97892.25;5018589;28;20481;-60
2023/09/10 08:29:11;;;;;;;10.80;9.73;;;22.80;72.90;;;23.86;55.14;97899.91;5021316;28;20068;-60
2023/09/10 08:31:39;;;;;;;10.93;9.70;;;22.80;72.30;;;23.89;54.92;97891.25;5020988;28;20041;-60
2023/09/10 08:34:07;;;;;;;14.45;9.27;;;22.80;72.80;;;23.93;54.68;97895.97;5017993;28;20045;-61
2023/09/10 08:36:34;;;;;;;10.95;9.80;;;22.90;71.10;;;23.96;53.84;97898.22;5017927;28;20095;-61
2023/09/10 08:39:02;;;;;;;8.95;8.05;;;22.90;69.70;;;23.99;53.49;97894.19;5020098;28;20053;-63
2023/09/10 08:42:03;;;;;;;9.50;8.43;;;22.90;69.00;;;24.01;53.17;97893.94;5019717;28;20041;-62
2023/09/10 08:44:31;;;;;;;11.07;7.53;;;23.00;67.60;;;24.10;52.54;97903.38;5022042;28;20434;-62
2023/09/10 08:47:01;;;;;;;14.27;9.20;;;23.10;67.60;;;24.14;52.67;97897.19;5027728;28;20046;-62
2023/09/10 08:49:31;;;;;;;9.77;7.68;;;23.10;67.40;;;24.17;52.00;97901.31;5016607;28;20045;-64
2023/09/10 08:51:59;;;;;;;8.77;7.80;;;23.10;65.10;;;24.20;51.14;97897.31;5017793;28;20416;-63
2023/09/10 08:54:28;;;;;;;9.27;8.23;;;23.20;64.80;;;24.26;51.11;97897.16;5020541;28;20056;-64
2023/09/10 08:56:56;;;;;;;10.68;7.57;;;23.30;64.30;;;24.31;50.69;97894.53;5018876;28;20041;-63
2023/09/10 08:59:24;;;;;;;9.57;7.57;;;23.30;63.90;;;24.34;50.36;97898.66;5017622;28;20048;-63
2023/09/10 09:01:53;;;;;;;9.35;6.72;;;23.30;63.40;;;24.40;50.06;97903.09;5015825;28;20057;-63
2023/09/10 09:04:21;;;;;;;9.15;7.45;;;23.40;62.20;;;24.43;48.93;97896.34;5029247;28;20045;-63
2023/09/10 09:06:53;;;;;;;9.35;7.88;;;23.40;61.10;;;24.46;49.00;97895.88;5018868;28;20390;-63
2023/09/10 09:09:25;;;;;;;8.68;7.72;;;23.50;60.50;;;24.51;47.93;97899.53;5019301;28;20044;-63
2023/09/10 09:11:54;;;;;;;7.40;6.78;;;23.50;59.20;;;24.55;47.71;97894.44;5019428;28;20061;-64
2023/09/10 09:14:24;;;;;;;7.72;6.47;;;23.60;59.10;;;24.60;47.08;97889.06;5019117;28;20045;-64
2023/09/10 09:16:53;;;;;;;7.90;7.13;;;23.60;58.00;;;24.65;47.17;97893.78;5019374;28;20049;-64
2023/09/10 09:19:22;;;;;;;9.05;6.47;;;23.70;58.50;;;24.69;47.26;97890.31;5017219;28;20424;-63
2023/09/10 09:21:51;;;;;;;9.77;7.15;;;23.70;58.60;;;24.73;47.46;97894.19;5012105;28;20089;-63
2023/09/10 09:24:22;;;;;;;9.32;7.15;;;23.70;58.70;;;24.77;47.71;97889.91;5023304;28;20042;-63
2023/09/10 09:26:52;;;;;;;9.32;7.15;;;23.80;59.80;;;24.83;47.36;97892.72;5012120;28;20041;-63
2023/09/10 09:29:21;;;;;;;10.00;8.27;;;23.80;58.30;;;24.88;47.41;97890.09;5023130;28;20074;-63
2023/09/10 09:31:49;;;;;;;9.25;8.00;;;23.90;59.00;;;24.91;47.29;97892.31;5014049;28;20041;-63
2023/09/10 09:34:17;;;;;;;10.35;7.32;;;24.00;59.10;;;24.92;47.91;97888.53;5017682;28;20045;-63
2023/09/10 09:36:50;;;;;;;9.77;6.63;;;24.00;59.30;;;24.95;47.38;97888.84;5020002;28;20041;-63
2023/09/10 09:39:20;;;;;;;11.27;8.55;;;24.00;58.60;;;25.01;47.26;97883.47;5017288;28;20038;-64
2023/09/10 09:41:51;;;;;;;9.05;8.07;;;24.10;58.20;;;25.05;46.65;97881.91;5015494;28;20049;-63
2023/09/10 09:44:19;;;;;;;8.77;7.30;;;24.10;56.70;;;25.09;47.36;97880.34;5017428;28;20048;-63
2023/09/10 09:46:48;;;;;;;9.52;7.65;;;24.10;58.70;;;25.12;48.06;97869.75;5017732;28;20048;-63
2023/09/10 09:49:17;;;;;;;8.63;7.45;;;24.20;59.80;;;25.17;47.84;97879.09;5015934;28;20038;-63
2023/09/10 09:51:45;;;;;;;9.35;8.43;;;24.20;59.20;;;25.21;47.93;97870.16;5016640;28;20246;-63
2023/09/10 09:54:12;;;;;;;10.23;8.15;;;24.30;59.60;;;25.25;47.73;97868.63;5018382;28;20480;-63
2023/09/10 09:56:43;;;;;;;9.05;7.28;;;24.40;58.90;;;25.30;48.10;97867.84;5020079;28;20107;-64
2023/09/10 09:59:11;;;;;;;8.75;7.95;;;24.50;59.50;;;25.34;47.86;97866.31;5016503;28;20045;-63
2023/09/10 10:01:39;;;;;;;9.55;8.55;;;24.60;59.50;;;25.42;48.14;97867.78;5016597;28;20437;-65
2023/09/10 10:04:07;;;;;;;8.98;7.68;;;24.60;59.90;;;25.45;47.66;97865.34;5030480;28;20058;-64
2023/09/10 10:06:37;;;;;;;9.30;7.93;;;24.60;58.70;;;25.50;47.12;97862.69;5018545;28;20038;-63
2023/09/10 10:09:18;;;;;;;9.95;8.00;;;24.80;58.40;;;25.62;47.25;97869.94;5014904;28;20045;-63
2023/09/10 10:11:46;;;;;;;9.30;8.20;;;24.80;58.40;;;25.65;46.87;97855.78;5016481;28;20037;-63
2023/09/10 10:14:15;;;;;;;9.57;7.85;;;24.90;57.70;;;25.68;46.26;97858.00;5015783;28;20508;-63
2023/09/10 10:16:43;;;;;;;8.35;7.50;;;24.90;56.60;;;25.71;46.13;97852.06;5018681;28;20041;-63
2023/09/10 10:19:11;;;;;;;8.52;6.72;;;25.00;56.90;;;25.71;45.94;97855.59;5016639;28;20060;-63
2023/09/10 10:21:40;;;;;;;9.57;7.63;;;25.00;55.90;;;25.79;46.08;97853.53;5016392;28;20045;-63
2023/09/10 10:24:08;;;;;;;8.57;7.57;;;25.00;56.60;;;25.83;46.33;97852.75;5010930;28;20046;-62